Waterville, ME

4:24 PM EDT on May 22, 2017 (GMT -0400)
Waterville Lafleur

Weather History for KWVL - August, 2013

Change the Weather History Date:

Saturday, August 24, 2013

  Actual Average Record
Temperature  
Mean Temperature 62 °F -  
Max Temperature 77 °F 77 °F 88 °F (1969)
Min Temperature 48 °F 51 °F 41 °F (1975)
Degree Days  
Heating Degree Days 2    
Growing Degree Days 12 (Base 50)    
Moisture  
Dew Point 48 °F    
Average Humidity 63    
Maximum Humidity 93    
Minimum Humidity 32    
Precipitation  
Precipitation 0.00 in - - ()
Sea Level Pressure  
Sea Level Pressure 30.22 in    
Wind  
Wind Speed 5 mph (North)    
Max Wind Speed 10 mph    
Max Gust Speed -    
Visibility 10 miles    
Events      
Averages and records for this station are not official NWS values.
T = Trace of Precipitation, MM = Missing Value Source: NWS Daily Summary

Daily Weather History Graph

Daily Weather History Graph

Search for Another Location

Airport or City:

Trip Planner

Search our weather history database for the weather conditions in past years. The results will help you decide how hot, cold, wet, or windy it might be!

Date:

Astronomy

Aug. 24, 2013 Rise Set
Actual Time 5:52 AM EDT 7:28 PM EDT
Civil Twilight 5:21 AM EDT 7:59 PM EDT
Nautical Twilight 4:44 AM EDT 8:36 PM EDT
Astronomical Twilight 4:04 AM EDT 9:16 PM EDT
Moon 9:08 PM EDT (8/24) 10:00 AM EDT (8/24)
Length of Visible Light 14h 38m
Length of Day
13h 36m
Waning Gibbous, 84% of the Moon is Illuminated
Aug 24
Waning Gibbous
Aug 28
Last Quarter
Sep 5
New
Sep 12
First Quarter
Sep 19
Full

Hourly Weather History & Observations

Time (EDT) Temp. Dew Point Humidity Pressure Visibility Wind Dir Wind Speed Gust Speed Precip Events Conditions
12:15 AM 55.4 °F 46.4 °F 72% 30.13 in 10.0 mi NNW 6.9 mph - N/A   Clear
12:35 AM 55.4 °F 46.4 °F 72% 30.13 in 10.0 mi NNW 6.9 mph - N/A   Clear
12:55 AM 55.4 °F 46.4 °F 72% 30.13 in 10.0 mi NNW 9.2 mph - N/A   Clear
1:15 AM 55.4 °F 46.4 °F 72% 30.14 in 10.0 mi NNW 8.1 mph - N/A   Clear
1:35 AM 55.4 °F 46.4 °F 72% 30.14 in 10.0 mi NNW 6.9 mph - N/A   Clear
1:55 AM 55.4 °F 46.4 °F 72% 30.14 in 10.0 mi North 8.1 mph - N/A   Clear
2:15 AM 55.4 °F 46.4 °F 72% 30.14 in 10.0 mi NNW 9.2 mph - N/A   Clear
2:35 AM 55.4 °F 46.4 °F 72% 30.15 in 10.0 mi NNW 9.2 mph - N/A   Clear
2:55 AM 55.4 °F 46.4 °F 72% 30.15 in 10.0 mi NNW 9.2 mph - N/A   Clear
3:15 AM 55.4 °F 46.4 °F 72% 30.15 in 10.0 mi North 8.1 mph - N/A   Clear
3:35 AM 53.6 °F 46.4 °F 77% 30.16 in 10.0 mi North 6.9 mph - N/A   Clear
3:55 AM 53.6 °F 46.4 °F 77% 30.16 in 10.0 mi NNW 5.8 mph - N/A   Clear
4:15 AM 53.6 °F 46.4 °F 77% 30.17 in 10.0 mi NNW 5.8 mph - N/A   Clear
4:35 AM 53.6 °F 46.4 °F 77% 30.18 in 10.0 mi North 4.6 mph - N/A   Clear
4:55 AM 50.0 °F 46.4 °F 87% 30.19 in 10.0 mi Calm Calm - N/A   Clear
5:15 AM 50.0 °F 46.4 °F 87% 30.20 in 10.0 mi Calm Calm - N/A   Clear
5:35 AM 48.2 °F 46.4 °F 93% 30.20 in 10.0 mi Calm Calm - N/A   Clear
5:55 AM 48.2 °F 46.4 °F 93% 30.20 in 10.0 mi Calm Calm - N/A   Clear
6:15 AM 48.2 °F 44.6 °F 87% 30.21 in 10.0 mi Calm Calm - N/A   Clear
6:35 AM 48.2 °F 46.4 °F 93% 30.22 in 10.0 mi Calm Calm - N/A   Clear
6:55 AM 48.2 °F 46.4 °F 93% 30.23 in 10.0 mi Calm Calm - N/A   Clear
7:15 AM 51.8 °F 48.2 °F 88% 30.24 in 10.0 mi Calm Calm - N/A   Clear
7:35 AM 57.2 °F 48.2 °F 72% 30.25 in 10.0 mi NNW 3.5 mph - N/A   Clear
7:55 AM 59.0 °F 48.2 °F 67% 30.25 in 10.0 mi NNW 3.5 mph - N/A   Clear
8:15 AM 59.0 °F 48.2 °F 67% 30.26 in 10.0 mi NNE 4.6 mph - N/A   Clear
8:35 AM 60.8 °F 48.2 °F 63% 30.26 in 10.0 mi North 3.5 mph - N/A   Clear
8:55 AM 62.6 °F 48.2 °F 59% 30.26 in 10.0 mi North 6.9 mph - N/A   Clear
9:15 AM 62.6 °F 48.2 °F 59% 30.27 in 10.0 mi NNE 5.8 mph - N/A   Clear
9:35 AM 64.4 °F 48.2 °F 56% 30.27 in 10.0 mi North 5.8 mph - N/A   Clear
9:55 AM 64.4 °F 48.2 °F 56% 30.27 in 10.0 mi NNW 5.8 mph - N/A   Clear
10:15 AM 66.2 °F 46.4 °F 49% 30.27 in 10.0 mi North 3.5 mph - N/A   Clear
10:35 AM 66.2 °F 48.2 °F 52% 30.27 in 10.0 mi NNE 4.6 mph - N/A   Clear
10:55 AM 68.0 °F 48.2 °F 49% 30.27 in 10.0 mi WNW 6.9 mph - N/A   Clear
11:15 AM 69.8 °F 46.4 °F 43% 30.26 in 10.0 mi North 5.8 mph - N/A   Clear
11:35 AM 69.8 °F 46.4 °F 43% 30.26 in 10.0 mi North 6.9 mph - N/A   Clear
11:55 AM 69.8 °F 46.4 °F 43% 30.26 in 10.0 mi North 8.1 mph - N/A   Clear
12:15 PM 71.6 °F 46.4 °F 41% 30.25 in 10.0 mi North 6.9 mph - N/A   Clear
12:35 PM 71.6 °F 46.4 °F 41% 30.25 in 10.0 mi Calm Calm - N/A   Clear
12:55 PM 73.4 °F 48.2 °F 41% 30.25 in 10.0 mi NNE 9.2 mph - N/A   Clear
1:15 PM 73.4 °F 46.4 °F 38% 30.25 in 10.0 mi North 5.8 mph - N/A   Clear
1:35 PM 73.4 °F 46.4 °F 38% 30.25 in 10.0 mi NNE 9.2 mph - N/A   Clear
1:55 PM 73.4 °F 46.4 °F 38% 30.24 in 10.0 mi NNE 6.9 mph - N/A   Clear
2:15 PM 73.4 °F 46.4 °F 38% 30.24 in 10.0 mi North 10.4 mph - N/A   Clear
2:35 PM 73.4 °F 44.6 °F 36% 30.24 in 10.0 mi North 6.9 mph - N/A   Clear
2:55 PM 75.2 °F 46.4 °F 36% 30.24 in 10.0 mi NNW 8.1 mph - N/A   Clear
3:15 PM 75.2 °F 44.6 °F 34% 30.24 in 10.0 mi NNW 6.9 mph - N/A   Clear
3:35 PM 75.2 °F 46.4 °F 36% 30.23 in 10.0 mi NNW 4.6 mph - N/A   Clear
3:55 PM 75.2 °F 46.4 °F 36% 30.23 in 10.0 mi NNE 3.5 mph - N/A   Clear
4:15 PM 75.2 °F 44.6 °F 34% 30.23 in 10.0 mi North 5.8 mph - N/A   Clear
4:35 PM 75.2 °F 48.2 °F 38% 30.23 in 10.0 mi NW 3.5 mph - N/A   Clear
4:56 PM 75.2 °F 46.4 °F 36% 30.23 in 10.0 mi Calm Calm - N/A   Clear
5:15 PM 77.0 °F 44.6 °F 32% 30.22 in 10.0 mi North 5.8 mph - N/A   Clear
5:35 PM 75.2 °F 46.4 °F 36% 30.22 in 10.0 mi North 4.6 mph - N/A   Clear
5:55 PM 75.2 °F 51.8 °F 44% 30.22 in 10.0 mi Calm Calm - N/A   Clear
6:15 PM 73.4 °F 53.6 °F 50% 30.22 in 10.0 mi Calm Calm - N/A   Clear
6:35 PM 71.6 °F 53.6 °F 53% 30.22 in 10.0 mi Calm Calm - N/A   Clear
6:55 PM 71.6 °F 51.8 °F 50% 30.22 in 10.0 mi Calm Calm - N/A   Clear
7:15 PM 66.2 °F 51.8 °F 60% 30.23 in 10.0 mi Calm Calm - N/A   Clear
7:35 PM 64.4 °F 53.6 °F 68% 30.23 in 10.0 mi Calm Calm - N/A   Clear
7:55 PM 62.6 °F 53.6 °F 72% 30.23 in 10.0 mi Calm Calm - N/A   Clear
8:15 PM 62.6 °F 51.8 °F 68% 30.24 in 10.0 mi Calm Calm - N/A   Clear
8:35 PM 62.6 °F 50.0 °F 63% 30.24 in 10.0 mi Calm Calm - N/A   Clear
8:55 PM 60.8 °F 51.8 °F 72% 30.25 in 10.0 mi Calm Calm - N/A   Clear
9:15 PM 59.0 °F 51.8 °F 77% 30.26 in 10.0 mi Calm Calm - N/A   Clear
9:35 PM 57.2 °F 51.8 °F 82% 30.26 in 10.0 mi Calm Calm - N/A   Clear
9:55 PM 57.2 °F 51.8 °F 82% 30.26 in 10.0 mi Calm Calm - N/A   Clear
10:15 PM 55.4 °F 50.0 °F 82% 30.27 in 2.5 mi North 3.5 mph - N/A   Clear
10:35 PM 55.4 °F 51.8 °F 88% 30.27 in 10.0 mi Calm Calm - N/A   Clear
10:55 PM 55.4 °F 51.8 °F 88% 30.27 in 10.0 mi North 3.5 mph - N/A   Clear
11:15 PM 55.4 °F 51.8 °F 88% 30.27 in 10.0 mi Calm Calm - N/A   Clear
11:35 PM 55.4 °F 51.8 °F 88% 30.27 in 10.0 mi Calm Calm - N/A   Clear
11:55 PM 57.2 °F 51.8 °F 82% 30.27 in 10.0 mi Calm Calm - N/A   Clear